sensor_id;sensor_type;location;lat;lon;timestamp;temperature;humidity
65824;SHT31;52585;47.566;19.056;2023-02-03T00:00:37;5.45;66.29
65824;SHT31;52585;47.566;19.056;2023-02-03T00:03:02;5.44;66.25
65824;SHT31;52585;47.566;19.056;2023-02-03T00:05:28;5.40;66.24
65824;SHT31;52585;47.566;19.056;2023-02-03T00:07:55;5.39;66.29
65824;SHT31;52585;47.566;19.056;2023-02-03T00:10:22;5.38;66.29
65824;SHT31;52585;47.566;19.056;2023-02-03T00:12:48;5.36;66.39
65824;SHT31;52585;47.566;19.056;2023-02-03T00:15:17;5.36;66.54
65824;SHT31;52585;47.566;19.056;2023-02-03T00:17:43;5.37;66.59
65824;SHT31;52585;47.566;19.056;2023-02-03T00:20:09;5.37;66.51
65824;SHT31;52585;47.566;19.056;2023-02-03T00:22:35;5.37;66.44
65824;SHT31;52585;47.566;19.056;2023-02-03T00:25:02;5.36;66.39
65824;SHT31;52585;47.566;19.056;2023-02-03T00:27:28;5.35;66.31
65824;SHT31;52585;47.566;19.056;2023-02-03T00:29:54;5.34;66.22
65824;SHT31;52585;47.566;19.056;2023-02-03T00:32:19;5.33;66.12
65824;SHT31;52585;47.566;19.056;2023-02-03T00:34:45;5.32;66.06
65824;SHT31;52585;47.566;19.056;2023-02-03T00:37:11;5.31;66.07
65824;SHT31;52585;47.566;19.056;2023-02-03T00:39:37;5.29;66.00
65824;SHT31;52585;47.566;19.056;2023-02-03T00:42:03;5.27;65.97
65824;SHT31;52585;47.566;19.056;2023-02-03T00:44:30;5.25;65.90
65824;SHT31;52585;47.566;19.056;2023-02-03T00:46:56;5.23;65.88
65824;SHT31;52585;47.566;19.056;2023-02-03T00:49:22;5.20;65.87
65824;SHT31;52585;47.566;19.056;2023-02-03T00:51:49;5.19;65.81
65824;SHT31;52585;47.566;19.056;2023-02-03T00:54:15;5.17;65.79
65824;SHT31;52585;47.566;19.056;2023-02-03T00:56:41;5.16;65.77
65824;SHT31;52585;47.566;19.056;2023-02-03T00:59:07;5.15;65.73
65824;SHT31;52585;47.566;19.056;2023-02-03T01:01:33;5.14;65.71
65824;SHT31;52585;47.566;19.056;2023-02-03T01:04:00;5.12;65.56
65824;SHT31;52585;47.566;19.056;2023-02-03T01:06:26;5.11;65.60
65824;SHT31;52585;47.566;19.056;2023-02-03T01:08:53;5.10;65.57
65824;SHT31;52585;47.566;19.056;2023-02-03T01:11:20;5.10;65.60
65824;SHT31;52585;47.566;19.056;2023-02-03T01:13:49;5.09;65.57
65824;SHT31;52585;47.566;19.056;2023-02-03T01:16:17;5.08;65.47
65824;SHT31;52585;47.566;19.056;2023-02-03T01:18:45;5.07;65.52
65824;SHT31;52585;47.566;19.056;2023-02-03T01:21:16;5.04;65.37
65824;SHT31;52585;47.566;19.056;2023-02-03T01:23:48;5.04;65.30
65824;SHT31;52585;47.566;19.056;2023-02-03T01:26:16;5.02;65.19
65824;SHT31;52585;47.566;19.056;2023-02-03T01:28:53;5.02;65.11
65824;SHT31;52585;47.566;19.056;2023-02-03T01:31:26;5.00;64.99
65824;SHT31;52585;47.566;19.056;2023-02-03T01:34:03;4.99;64.86
65824;SHT31;52585;47.566;19.056;2023-02-03T01:36:31;4.98;64.65
65824;SHT31;52585;47.566;19.056;2023-02-03T01:38:59;4.96;64.53
65824;SHT31;52585;47.566;19.056;2023-02-03T01:41:27;4.95;64.43
65824;SHT31;52585;47.566;19.056;2023-02-03T01:43:57;4.93;64.39
65824;SHT31;52585;47.566;19.056;2023-02-03T01:48:53;4.89;64.32
65824;SHT31;52585;47.566;19.056;2023-02-03T01:51:29;4.91;64.20
65824;SHT31;52585;47.566;19.056;2023-02-03T01:53:55;4.93;63.97
65824;SHT31;52585;47.566;19.056;2023-02-03T01:56:22;4.95;63.68
65824;SHT31;52585;47.566;19.056;2023-02-03T01:58:54;4.98;63.64
65824;SHT31;52585;47.566;19.056;2023-02-03T02:01:20;5.00;63.48
65824;SHT31;52585;47.566;19.056;2023-02-03T02:03:50;5.04;63.30
65824;SHT31;52585;47.566;19.056;2023-02-03T02:06:20;5.04;63.11
65824;SHT31;52585;47.566;19.056;2023-02-03T02:08:47;5.07;62.92
65824;SHT31;52585;47.566;19.056;2023-02-03T02:11:16;5.08;62.70
65824;SHT31;52585;47.566;19.056;2023-02-03T02:13:45;5.09;62.62
65824;SHT31;52585;47.566;19.056;2023-02-03T02:18:49;5.06;62.40
65824;SHT31;52585;47.566;19.056;2023-02-03T02:24:29;5.00;62.07
65824;SHT31;52585;47.566;19.056;2023-02-03T02:30:33;4.94;62.15
65824;SHT31;52585;47.566;19.056;2023-02-03T02:33:33;4.91;61.84
65824;SHT31;52585;47.566;19.056;2023-02-03T02:38:49;4.88;61.95
65824;SHT31;52585;47.566;19.056;2023-02-03T02:42:25;4.86;61.74
65824;SHT31;52585;47.566;19.056;2023-02-03T02:45:15;4.82;61.62
65824;SHT31;52585;47.566;19.056;2023-02-03T02:48:08;4.81;61.48
65824;SHT31;52585;47.566;19.056;2023-02-03T02:50:45;4.81;61.65
65824;SHT31;52585;47.566;19.056;2023-02-03T02:53:15;4.79;61.71
65824;SHT31;52585;47.566;19.056;2023-02-03T02:55:47;4.76;61.83
65824;SHT31;52585;47.566;19.056;2023-02-03T02:58:14;4.73;61.83
65824;SHT31;52585;47.566;19.056;2023-02-03T03:00:43;4.72;61.74
65824;SHT31;52585;47.566;19.056;2023-02-03T03:03:17;4.71;61.79
65824;SHT31;52585;47.566;19.056;2023-02-03T03:05:56;4.70;61.80
65824;SHT31;52585;47.566;19.056;2023-02-03T03:08:41;4.67;61.87
65824;SHT31;52585;47.566;19.056;2023-02-03T03:11:19;4.65;62.00
65824;SHT31;52585;47.566;19.056;2023-02-03T03:13:50;4.63;62.12
65824;SHT31;52585;47.566;19.056;2023-02-03T03:16:21;4.61;62.06
65824;SHT31;52585;47.566;19.056;2023-02-03T03:18:57;4.60;62.05
65824;SHT31;52585;47.566;19.056;2023-02-03T03:21:30;4.58;61.99
65824;SHT31;52585;47.566;19.056;2023-02-03T03:24:03;4.56;62.05
65824;SHT31;52585;47.566;19.056;2023-02-03T03:26:38;4.55;61.96
65824;SHT31;52585;47.566;19.056;2023-02-03T03:29:23;4.52;62.00
65824;SHT31;52585;47.566;19.056;2023-02-03T03:32:02;4.49;61.90
65824;SHT31;52585;47.566;19.056;2023-02-03T03:34:28;4.46;61.95
65824;SHT31;52585;47.566;19.056;2023-02-03T03:37:06;4.45;61.95
65824;SHT31;52585;47.566;19.056;2023-02-03T03:39:57;4.42;61.91
65824;SHT31;52585;47.566;19.056;2023-02-03T03:45:16;4.36;61.87
65824;SHT31;52585;47.566;19.056;2023-02-03T03:47:53;4.34;61.73
65824;SHT31;52585;47.566;19.056;2023-02-03T03:50:33;4.31;61.77
65824;SHT31;52585;47.566;19.056;2023-02-03T03:53:06;4.29;61.69
65824;SHT31;52585;47.566;19.056;2023-02-03T03:55:34;4.26;61.78
65824;SHT31;52585;47.566;19.056;2023-02-03T03:58:07;4.24;61.76
65824;SHT31;52585;47.566;19.056;2023-02-03T04:00:57;4.22;61.97
65824;SHT31;52585;47.566;19.056;2023-02-03T04:03:29;4.22;62.15
65824;SHT31;52585;47.566;19.056;2023-02-03T04:06:03;4.21;62.26
65824;SHT31;52585;47.566;19.056;2023-02-03T04:08:30;4.22;62.38
65824;SHT31;52585;47.566;19.056;2023-02-03T04:10:55;4.20;62.49
65824;SHT31;52585;47.566;19.056;2023-02-03T04:13:21;4.19;62.57
65824;SHT31;52585;47.566;19.056;2023-02-03T04:15:47;4.18;62.64
65824;SHT31;52585;47.566;19.056;2023-02-03T04:18:13;4.17;62.66
65824;SHT31;52585;47.566;19.056;2023-02-03T04:20:40;4.16;62.73
65824;SHT31;52585;47.566;19.056;2023-02-03T04:23:06;4.16;62.76
65824;SHT31;52585;47.566;19.056;2023-02-03T04:25:33;4.16;62.81
65824;SHT31;52585;47.566;19.056;2023-02-03T04:27:59;4.14;62.82
65824;SHT31;52585;47.566;19.056;2023-02-03T04:30:25;4.14;62.83
65824;SHT31;52585;47.566;19.056;2023-02-03T04:32:52;4.12;62.88
65824;SHT31;52585;47.566;19.056;2023-02-03T04:35:18;4.12;62.82
65824;SHT31;52585;47.566;19.056;2023-02-03T04:37:44;4.10;62.74
65824;SHT31;52585;47.566;19.056;2023-02-03T04:40:11;4.10;62.65
65824;SHT31;52585;47.566;19.056;2023-02-03T04:42:37;4.10;62.39
65824;SHT31;52585;47.566;19.056;2023-02-03T04:45:05;4.10;62.30
65824;SHT31;52585;47.566;19.056;2023-02-03T04:47:34;4.09;61.94
65824;SHT31;52585;47.566;19.056;2023-02-03T04:50:01;4.09;61.72
65824;SHT31;52585;47.566;19.056;2023-02-03T04:52:28;4.10;61.59
65824;SHT31;52585;47.566;19.056;2023-02-03T04:54:53;4.11;61.24
65824;SHT31;52585;47.566;19.056;2023-02-03T04:57:19;4.10;61.15
65824;SHT31;52585;47.566;19.056;2023-02-03T04:59:44;4.11;61.20
65824;SHT31;52585;47.566;19.056;2023-02-03T05:02:10;4.11;61.21
65824;SHT31;52585;47.566;19.056;2023-02-03T05:04:35;4.11;60.93
65824;SHT31;52585;47.566;19.056;2023-02-03T05:07:01;4.11;60.43
65824;SHT31;52585;47.566;19.056;2023-02-03T05:09:27;4.11;60.51
65824;SHT31;52585;47.566;19.056;2023-02-03T05:11:53;4.11;60.47
65824;SHT31;52585;47.566;19.056;2023-02-03T05:14:18;4.12;60.46
65824;SHT31;52585;47.566;19.056;2023-02-03T05:16:45;4.10;60.42
65824;SHT31;52585;47.566;19.056;2023-02-03T05:19:11;4.11;60.39
65824;SHT31;52585;47.566;19.056;2023-02-03T05:21:37;4.11;60.43
65824;SHT31;52585;47.566;19.056;2023-02-03T05:24:03;4.10;60.48
65824;SHT31;52585;47.566;19.056;2023-02-03T05:26:32;4.11;60.54
65824;SHT31;52585;47.566;19.056;2023-02-03T05:28:59;4.11;60.58
65824;SHT31;52585;47.566;19.056;2023-02-03T05:31:25;4.12;60.41
65824;SHT31;52585;47.566;19.056;2023-02-03T05:33:51;4.12;60.39
65824;SHT31;52585;47.566;19.056;2023-02-03T05:36:16;4.11;60.38
65824;SHT31;52585;47.566;19.056;2023-02-03T05:38:42;4.13;60.25
65824;SHT31;52585;47.566;19.056;2023-02-03T05:41:11;4.13;60.12
65824;SHT31;52585;47.566;19.056;2023-02-03T05:43:55;4.13;60.16
65824;SHT31;52585;47.566;19.056;2023-02-03T05:46:21;4.13;60.28
65824;SHT31;52585;47.566;19.056;2023-02-03T05:48:47;4.13;60.19
65824;SHT31;52585;47.566;19.056;2023-02-03T05:51:12;4.13;60.20
65824;SHT31;52585;47.566;19.056;2023-02-03T05:53:38;4.14;60.21
65824;SHT31;52585;47.566;19.056;2023-02-03T05:56:04;4.13;60.16
65824;SHT31;52585;47.566;19.056;2023-02-03T05:58:30;4.14;60.26
65824;SHT31;52585;47.566;19.056;2023-02-03T06:00:55;4.12;60.32
65824;SHT31;52585;47.566;19.056;2023-02-03T06:03:21;4.11;60.38
65824;SHT31;52585;47.566;19.056;2023-02-03T06:05:46;4.11;60.32
65824;SHT31;52585;47.566;19.056;2023-02-03T06:08:12;4.10;60.34
65824;SHT31;52585;47.566;19.056;2023-02-03T06:10:38;4.10;60.37
65824;SHT31;52585;47.566;19.056;2023-02-03T06:13:10;4.11;60.39
65824;SHT31;52585;47.566;19.056;2023-02-03T06:15:38;4.11;60.50
65824;SHT31;52585;47.566;19.056;2023-02-03T06:18:05;4.11;60.39
65824;SHT31;52585;47.566;19.056;2023-02-03T06:20:31;4.10;60.54
65824;SHT31;52585;47.566;19.056;2023-02-03T06:22:58;4.10;60.70
65824;SHT31;52585;47.566;19.056;2023-02-03T06:25:23;4.08;60.80
65824;SHT31;52585;47.566;19.056;2023-02-03T06:27:50;4.07;60.89
65824;SHT31;52585;47.566;19.056;2023-02-03T06:30:16;4.07;61.04
65824;SHT31;52585;47.566;19.056;2023-02-03T06:32:42;4.07;61.12
65824;SHT31;52585;47.566;19.056;2023-02-03T06:35:08;4.08;61.10
65824;SHT31;52585;47.566;19.056;2023-02-03T06:37:34;4.08;61.06
65824;SHT31;52585;47.566;19.056;2023-02-03T06:40:00;4.08;61.16
65824;SHT31;52585;47.566;19.056;2023-02-03T06:42:26;4.07;61.14
65824;SHT31;52585;47.566;19.056;2023-02-03T06:44:52;4.07;61.15
65824;SHT31;52585;47.566;19.056;2023-02-03T06:47:19;4.07;61.17
65824;SHT31;52585;47.566;19.056;2023-02-03T06:49:44;4.07;61.09
65824;SHT31;52585;47.566;19.056;2023-02-03T06:52:10;4.08;61.15
65824;SHT31;52585;47.566;19.056;2023-02-03T06:54:35;4.09;61.15
65824;SHT31;52585;47.566;19.056;2023-02-03T06:57:01;4.09;61.13
65824;SHT31;52585;47.566;19.056;2023-02-03T06:59:28;4.09;61.11
65824;SHT31;52585;47.566;19.056;2023-02-03T07:01:54;4.11;61.03
65824;SHT31;52585;47.566;19.056;2023-02-03T07:04:19;4.10;61.05
65824;SHT31;52585;47.566;19.056;2023-02-03T07:06:45;4.11;61.02
65824;SHT31;52585;47.566;19.056;2023-02-03T07:09:11;4.11;60.88
65824;SHT31;52585;47.566;19.056;2023-02-03T07:11:37;4.11;60.89
65824;SHT31;52585;47.566;19.056;2023-02-03T07:14:03;4.12;60.85
65824;SHT31;52585;47.566;19.056;2023-02-03T07:16:29;4.13;60.77
65824;SHT31;52585;47.566;19.056;2023-02-03T07:18:55;4.14;60.69
65824;SHT31;52585;47.566;19.056;2023-02-03T07:21:21;4.14;60.56
65824;SHT31;52585;47.566;19.056;2023-02-03T07:23:48;4.14;60.39
65824;SHT31;52585;47.566;19.056;2023-02-03T07:26:15;4.13;60.48
65824;SHT31;52585;47.566;19.056;2023-02-03T07:28:41;4.16;60.45
65824;SHT31;52585;47.566;19.056;2023-02-03T07:31:06;4.16;60.12
65824;SHT31;52585;47.566;19.056;2023-02-03T07:33:34;4.17;60.04
65824;SHT31;52585;47.566;19.056;2023-02-03T07:36:01;4.17;60.00
65824;SHT31;52585;47.566;19.056;2023-02-03T07:38:27;4.20;59.97
65824;SHT31;52585;47.566;19.056;2023-02-03T07:40:54;4.20;60.02
65824;SHT31;52585;47.566;19.056;2023-02-03T07:43:20;4.20;59.98
65824;SHT31;52585;47.566;19.056;2023-02-03T07:45:46;4.20;59.95
65824;SHT31;52585;47.566;19.056;2023-02-03T07:48:12;4.21;59.92
65824;SHT31;52585;47.566;19.056;2023-02-03T07:50:38;4.22;59.79
65824;SHT31;52585;47.566;19.056;2023-02-03T07:53:04;4.23;59.88
65824;SHT31;52585;47.566;19.056;2023-02-03T07:55:33;4.24;59.92
65824;SHT31;52585;47.566;19.056;2023-02-03T07:58:02;4.24;59.88
65824;SHT31;52585;47.566;19.056;2023-02-03T08:00:27;4.23;59.88
65824;SHT31;52585;47.566;19.056;2023-02-03T08:02:53;4.24;59.90
65824;SHT31;52585;47.566;19.056;2023-02-03T08:05:18;4.25;59.78
65824;SHT31;52585;47.566;19.056;2023-02-03T08:07:44;4.25;59.75
65824;SHT31;52585;47.566;19.056;2023-02-03T08:10:11;4.26;59.62
65824;SHT31;52585;47.566;19.056;2023-02-03T08:12:39;4.26;59.55
65824;SHT31;52585;47.566;19.056;2023-02-03T08:15:07;4.28;59.46
65824;SHT31;52585;47.566;19.056;2023-02-03T08:17:34;4.28;59.68
65824;SHT31;52585;47.566;19.056;2023-02-03T08:20:00;4.28;59.63
65824;SHT31;52585;47.566;19.056;2023-02-03T08:22:26;4.28;59.71
65824;SHT31;52585;47.566;19.056;2023-02-03T08:24:52;4.28;59.67
65824;SHT31;52585;47.566;19.056;2023-02-03T08:27:19;4.30;59.86
65824;SHT31;52585;47.566;19.056;2023-02-03T08:29:47;4.29;60.01
65824;SHT31;52585;47.566;19.056;2023-02-03T08:32:20;4.30;60.10
65824;SHT31;52585;47.566;19.056;2023-02-03T08:34:47;4.30;60.25
65824;SHT31;52585;47.566;19.056;2023-02-03T08:37:14;4.30;60.29
65824;SHT31;52585;47.566;19.056;2023-02-03T08:39:43;4.30;60.40
65824;SHT31;52585;47.566;19.056;2023-02-03T08:42:09;4.32;60.44
65824;SHT31;52585;47.566;19.056;2023-02-03T08:44:36;4.31;60.48
65824;SHT31;52585;47.566;19.056;2023-02-03T08:47:03;4.32;60.51
65824;SHT31;52585;47.566;19.056;2023-02-03T08:49:31;4.34;60.56
65824;SHT31;52585;47.566;19.056;2023-02-03T08:51:59;4.34;60.60
65824;SHT31;52585;47.566;19.056;2023-02-03T08:54:26;4.35;60.63
65824;SHT31;52585;47.566;19.056;2023-02-03T08:56:51;4.35;60.56
65824;SHT31;52585;47.566;19.056;2023-02-03T08:59:17;4.35;60.68
65824;SHT31;52585;47.566;19.056;2023-02-03T09:01:44;4.36;60.80
65824;SHT31;52585;47.566;19.056;2023-02-03T09:04:12;4.37;60.87
65824;SHT31;52585;47.566;19.056;2023-02-03T09:06:43;4.38;60.99
65824;SHT31;52585;47.566;19.056;2023-02-03T09:09:12;4.39;61.06
65824;SHT31;52585;47.566;19.056;2023-02-03T09:11:39;4.40;61.20
65824;SHT31;52585;47.566;19.056;2023-02-03T09:14:07;4.41;61.32
65824;SHT31;52585;47.566;19.056;2023-02-03T09:16:34;4.42;61.52
65824;SHT31;52585;47.566;19.056;2023-02-03T09:19:00;4.43;61.78
65824;SHT31;52585;47.566;19.056;2023-02-03T09:21:25;4.44;62.06
65824;SHT31;52585;47.566;19.056;2023-02-03T09:23:51;4.43;62.55
65824;SHT31;52585;47.566;19.056;2023-02-03T09:26:17;4.43;63.16
65824;SHT31;52585;47.566;19.056;2023-02-03T09:28:42;4.44;63.88
65824;SHT31;52585;47.566;19.056;2023-02-03T09:31:09;4.45;64.28
65824;SHT31;52585;47.566;19.056;2023-02-03T09:33:41;4.43;64.58
65824;SHT31;52585;47.566;19.056;2023-02-03T09:36:09;4.43;64.61
65824;SHT31;52585;47.566;19.056;2023-02-03T09:38:35;4.41;64.68
65824;SHT31;52585;47.566;19.056;2023-02-03T09:46:14;4.34;65.15
65824;SHT31;52585;47.566;19.056;2023-02-03T09:48:58;4.30;65.48
65824;SHT31;52585;47.566;19.056;2023-02-03T09:51:37;4.28;65.62
65824;SHT31;52585;47.566;19.056;2023-02-03T09:54:18;4.28;65.75
65824;SHT31;52585;47.566;19.056;2023-02-03T09:57:16;4.26;66.30
65824;SHT31;52585;47.566;19.056;2023-02-03T09:59:46;4.28;66.72
65824;SHT31;52585;47.566;19.056;2023-02-03T10:22:33;4.24;67.19
65824;SHT31;52585;47.566;19.056;2023-02-03T10:27:50;4.22;68.08
65824;SHT31;52585;47.566;19.056;2023-02-03T10:30:24;4.23;68.42
65824;SHT31;52585;47.566;19.056;2023-02-03T10:33:09;4.23;68.51
65824;SHT31;52585;47.566;19.056;2023-02-03T10:35:51;4.23;68.48
65824;SHT31;52585;47.566;19.056;2023-02-03T10:41:15;4.24;68.44
65824;SHT31;52585;47.566;19.056;2023-02-03T10:43:44;4.24;68.47
65824;SHT31;52585;47.566;19.056;2023-02-03T10:46:11;4.26;68.58
65824;SHT31;52585;47.566;19.056;2023-02-03T10:48:45;4.26;68.61
65824;SHT31;52585;47.566;19.056;2023-02-03T10:51:14;4.26;68.69
65824;SHT31;52585;47.566;19.056;2023-02-03T10:53:48;4.28;69.22
65824;SHT31;52585;47.566;19.056;2023-02-03T10:56:18;4.31;69.62
65824;SHT31;52585;47.566;19.056;2023-02-03T10:58:50;4.34;69.51
65824;SHT31;52585;47.566;19.056;2023-02-03T11:01:24;4.36;69.41
65824;SHT31;52585;47.566;19.056;2023-02-03T11:04:03;4.37;69.37
65824;SHT31;52585;47.566;19.056;2023-02-03T11:06:31;4.38;69.28
65824;SHT31;52585;47.566;19.056;2023-02-03T11:08:58;4.39;69.34
65824;SHT31;52585;47.566;19.056;2023-02-03T11:16:27;4.46;70.16
65824;SHT31;52585;47.566;19.056;2023-02-03T11:18:58;4.50;70.69
65824;SHT31;52585;47.566;19.056;2023-02-03T11:21:42;4.57;71.19
65824;SHT31;52585;47.566;19.056;2023-02-03T11:27:08;4.65;70.48
65824;SHT31;52585;47.566;19.056;2023-02-03T11:29:46;4.66;70.06
65824;SHT31;52585;47.566;19.056;2023-02-03T11:32:32;4.65;70.02
65824;SHT31;52585;47.566;19.056;2023-02-03T11:35:03;4.66;70.07
65824;SHT31;52585;47.566;19.056;2023-02-03T11:37:44;4.66;70.12
65824;SHT31;52585;47.566;19.056;2023-02-03T11:50:57;4.73;70.73
65824;SHT31;52585;47.566;19.056;2023-02-03T12:21:39;4.75;71.02
65824;SHT31;52585;47.566;19.056;2023-02-03T12:24:21;4.74;70.95
65824;SHT31;52585;47.566;19.056;2023-02-03T12:30:23;4.72;71.26
65824;SHT31;52585;47.566;19.056;2023-02-03T12:35:59;4.75;71.84
65824;SHT31;52585;47.566;19.056;2023-02-03T12:38:40;4.76;71.74
65824;SHT31;52585;47.566;19.056;2023-02-03T12:41:18;4.78;71.71
65824;SHT31;52585;47.566;19.056;2023-02-03T12:43:55;4.81;71.74
65824;SHT31;52585;47.566;19.056;2023-02-03T12:46:29;4.83;71.70
65824;SHT31;52585;47.566;19.056;2023-02-03T12:49:30;4.84;71.74
65824;SHT31;52585;47.566;19.056;2023-02-03T12:52:16;4.86;72.00
65824;SHT31;52585;47.566;19.056;2023-02-03T12:57:42;4.91;72.42
65824;SHT31;52585;47.566;19.056;2023-02-03T13:03:23;4.93;72.10
65824;SHT31;52585;47.566;19.056;2023-02-03T13:09:28;4.91;71.94
65824;SHT31;52585;47.566;19.056;2023-02-03T13:12:10;4.91;72.02
65824;SHT31;52585;47.566;19.056;2023-02-03T13:14:53;4.92;72.35
65824;SHT31;52585;47.566;19.056;2023-02-03T13:17:44;4.95;72.73
65824;SHT31;52585;47.566;19.056;2023-02-03T13:20:16;4.98;72.84
65824;SHT31;52585;47.566;19.056;2023-02-03T13:22:46;5.01;72.83
65824;SHT31;52585;47.566;19.056;2023-02-03T13:25:22;5.02;72.57
65824;SHT31;52585;47.566;19.056;2023-02-03T13:28:05;5.04;72.57
65824;SHT31;52585;47.566;19.056;2023-02-03T13:42:44;5.13;73.30
65824;SHT31;52585;47.566;19.056;2023-02-03T13:45:35;5.16;73.05
65824;SHT31;52585;47.566;19.056;2023-02-03T13:48:15;5.17;72.81
65824;SHT31;52585;47.566;19.056;2023-02-03T13:50:47;5.17;72.71
65824;SHT31;52585;47.566;19.056;2023-02-03T13:53:26;5.17;72.65
65824;SHT31;52585;47.566;19.056;2023-02-03T13:56:00;5.18;72.66
65824;SHT31;52585;47.566;19.056;2023-02-03T13:58:30;5.18;72.74
65824;SHT31;52585;47.566;19.056;2023-02-03T14:05:56;5.25;73.43
65824;SHT31;52585;47.566;19.056;2023-02-03T14:16:35;5.31;73.18
65824;SHT31;52585;47.566;19.056;2023-02-03T14:21:54;5.33;73.64
65824;SHT31;52585;47.566;19.056;2023-02-03T14:24:37;5.35;73.94
65824;SHT31;52585;47.566;19.056;2023-02-03T14:27:25;5.37;73.81
65824;SHT31;52585;47.566;19.056;2023-02-03T14:32:51;5.39;73.47
65824;SHT31;52585;47.566;19.056;2023-02-03T14:35:31;5.39;73.46
65824;SHT31;52585;47.566;19.056;2023-02-03T14:38:05;5.41;73.36
65824;SHT31;52585;47.566;19.056;2023-02-03T14:55:02;5.48;73.48
65824;SHT31;52585;47.566;19.056;2023-02-03T14:58:26;5.49;73.60
65824;SHT31;52585;47.566;19.056;2023-02-03T15:06:36;5.49;74.25
65824;SHT31;52585;47.566;19.056;2023-02-03T15:09:32;5.52;74.15
65824;SHT31;52585;47.566;19.056;2023-02-03T15:12:19;5.55;74.04
65824;SHT31;52585;47.566;19.056;2023-02-03T15:14:50;5.54;73.89
65824;SHT31;52585;47.566;19.056;2023-02-03T15:17:26;5.56;73.78
65824;SHT31;52585;47.566;19.056;2023-02-03T15:19:54;5.55;73.87
65824;SHT31;52585;47.566;19.056;2023-02-03T15:24:51;5.58;74.40
65824;SHT31;52585;47.566;19.056;2023-02-03T15:27:22;5.60;74.36
65824;SHT31;52585;47.566;19.056;2023-02-03T15:29:53;5.62;74.19
65824;SHT31;52585;47.566;19.056;2023-02-03T15:32:28;5.63;74.13
65824;SHT31;52585;47.566;19.056;2023-02-03T15:35:01;5.63;74.11
65824;SHT31;52585;47.566;19.056;2023-02-03T15:49:02;5.68;74.51
65824;SHT31;52585;47.566;19.056;2023-02-03T15:51:51;5.68;74.43
65824;SHT31;52585;47.566;19.056;2023-02-03T15:54:39;5.69;74.30
65824;SHT31;52585;47.566;19.056;2023-02-03T15:57:24;5.68;74.09
65824;SHT31;52585;47.566;19.056;2023-02-03T16:00:38;5.66;74.05
65824;SHT31;52585;47.566;19.056;2023-02-03T16:02:59;5.66;74.53
65824;SHT31;52585;47.566;19.056;2023-02-03T16:05:32;5.68;74.59
65824;SHT31;52585;47.566;19.056;2023-02-03T16:14:01;5.71;74.13
65824;SHT31;52585;47.566;19.056;2023-02-03T16:19:15;5.69;73.90
65824;SHT31;52585;47.566;19.056;2023-02-03T16:24:31;5.69;74.22
65824;SHT31;52585;47.566;19.056;2023-02-03T16:27:19;5.69;74.26
65824;SHT31;52585;47.566;19.056;2023-02-03T16:29:51;5.68;74.10
65824;SHT31;52585;47.566;19.056;2023-02-03T16:32:37;5.68;73.99
65824;SHT31;52585;47.566;19.056;2023-02-03T16:35:22;5.67;73.82
65824;SHT31;52585;47.566;19.056;2023-02-03T16:38:13;5.65;73.73
65824;SHT31;52585;47.566;19.056;2023-02-03T16:40:59;5.62;73.74
65824;SHT31;52585;47.566;19.056;2023-02-03T16:43:45;5.62;73.90
65824;SHT31;52585;47.566;19.056;2023-02-03T16:46:29;5.60;73.92
65824;SHT31;52585;47.566;19.056;2023-02-03T16:49:13;5.59;74.00
65824;SHT31;52585;47.566;19.056;2023-02-03T16:51:57;5.59;73.90
65824;SHT31;52585;47.566;19.056;2023-02-03T16:54:23;5.59;73.83
65824;SHT31;52585;47.566;19.056;2023-02-03T16:56:49;5.57;73.76
65824;SHT31;52585;47.566;19.056;2023-02-03T16:59:16;5.59;73.92
65824;SHT31;52585;47.566;19.056;2023-02-03T17:01:41;5.61;74.02
65824;SHT31;52585;47.566;19.056;2023-02-03T17:04:09;5.65;74.21
65824;SHT31;52585;47.566;19.056;2023-02-03T17:06:38;5.68;74.30
65824;SHT31;52585;47.566;19.056;2023-02-03T17:09:06;5.70;74.45
65824;SHT31;52585;47.566;19.056;2023-02-03T17:11:33;5.72;74.48
65824;SHT31;52585;47.566;19.056;2023-02-03T17:13:58;5.75;74.48
65824;SHT31;52585;47.566;19.056;2023-02-03T17:16:25;5.76;74.46
65824;SHT31;52585;47.566;19.056;2023-02-03T17:18:52;5.79;74.33
65824;SHT31;52585;47.566;19.056;2023-02-03T17:21:20;5.79;74.34
65824;SHT31;52585;47.566;19.056;2023-02-03T17:23:49;5.80;74.46
65824;SHT31;52585;47.566;19.056;2023-02-03T17:26:15;5.81;74.84
65824;SHT31;52585;47.566;19.056;2023-02-03T17:28:42;5.84;75.07
65824;SHT31;52585;47.566;19.056;2023-02-03T17:31:10;5.87;75.22
65824;SHT31;52585;47.566;19.056;2023-02-03T17:33:39;5.89;75.17
65824;SHT31;52585;47.566;19.056;2023-02-03T17:38:40;5.94;74.98
65824;SHT31;52585;47.566;19.056;2023-02-03T17:41:11;5.94;75.00
65824;SHT31;52585;47.566;19.056;2023-02-03T17:43:40;5.94;75.01
65824;SHT31;52585;47.566;19.056;2023-02-03T17:46:08;5.95;75.39
65824;SHT31;52585;47.566;19.056;2023-02-03T17:48:37;5.98;75.50
65824;SHT31;52585;47.566;19.056;2023-02-03T17:51:07;6.02;75.70
65824;SHT31;52585;47.566;19.056;2023-02-03T17:53:38;6.05;75.74
65824;SHT31;52585;47.566;19.056;2023-02-03T17:57:11;6.18;76.29
65824;SHT31;52585;47.566;19.056;2023-02-03T17:59:37;6.28;76.14
65824;SHT31;52585;47.566;19.056;2023-02-03T18:02:03;6.35;76.60
65824;SHT31;52585;47.566;19.056;2023-02-03T18:04:30;6.43;76.94
65824;SHT31;52585;47.566;19.056;2023-02-03T18:06:57;6.51;76.84
65824;SHT31;52585;47.566;19.056;2023-02-03T18:09:23;6.57;78.06
65824;SHT31;52585;47.566;19.056;2023-02-03T18:11:49;6.63;76.74
65824;SHT31;52585;47.566;19.056;2023-02-03T18:14:15;6.65;76.26
65824;SHT31;52585;47.566;19.056;2023-02-03T18:16:42;6.67;75.81
65824;SHT31;52585;47.566;19.056;2023-02-03T18:19:10;6.66;75.84
65824;SHT31;52585;47.566;19.056;2023-02-03T18:21:39;6.67;75.90
65824;SHT31;52585;47.566;19.056;2023-02-03T18:24:07;6.68;75.93
65824;SHT31;52585;47.566;19.056;2023-02-03T18:26:44;6.70;75.88
65824;SHT31;52585;47.566;19.056;2023-02-03T18:29:16;6.71;75.71
65824;SHT31;52585;47.566;19.056;2023-02-03T18:31:43;6.72;75.51
65824;SHT31;52585;47.566;19.056;2023-02-03T18:34:09;6.71;75.40
65824;SHT31;52585;47.566;19.056;2023-02-03T18:36:41;6.71;75.40
65824;SHT31;52585;47.566;19.056;2023-02-03T18:39:07;6.71;75.52
65824;SHT31;52585;47.566;19.056;2023-02-03T18:41:33;6.71;75.74
65824;SHT31;52585;47.566;19.056;2023-02-03T18:44:00;6.72;75.64
65824;SHT31;52585;47.566;19.056;2023-02-03T18:46:28;6.71;75.58
65824;SHT31;52585;47.566;19.056;2023-02-03T18:48:58;6.69;75.56
65824;SHT31;52585;47.566;19.056;2023-02-03T18:51:24;6.67;75.48
65824;SHT31;52585;47.566;19.056;2023-02-03T18:53:54;6.67;75.52
65824;SHT31;52585;47.566;19.056;2023-02-03T18:56:26;6.68;75.79
65824;SHT31;52585;47.566;19.056;2023-02-03T18:59:12;6.69;76.05
65824;SHT31;52585;47.566;19.056;2023-02-03T19:01:39;6.68;76.05
65824;SHT31;52585;47.566;19.056;2023-02-03T19:04:05;6.68;75.92